createdAt,value
2023-05-12T00:01:55.445Z,11.50
2023-05-12T00:04:22.296Z,11.93
2023-05-12T00:06:49.028Z,11.63
2023-05-12T00:09:15.777Z,12.45
2023-05-12T00:11:42.474Z,11.93
2023-05-12T00:14:09.216Z,12.07
2023-05-12T00:16:36.184Z,11.63
2023-05-12T00:19:03.009Z,11.57
2023-05-12T00:21:29.743Z,11.70
2023-05-12T00:23:56.506Z,11.30
2023-05-12T00:26:23.138Z,11.93
2023-05-12T00:28:50.681Z,11.88
2023-05-12T00:31:17.476Z,12.00
2023-05-12T00:33:44.188Z,11.88
2023-05-12T00:36:11.074Z,11.90
2023-05-12T00:38:38.147Z,12.57
2023-05-12T00:41:05.163Z,12.38
2023-05-12T00:43:32.104Z,12.35
2023-05-12T00:45:59.763Z,12.20
2023-05-12T00:48:27.105Z,12.07
2023-05-12T00:50:55.371Z,12.18
2023-05-12T00:53:22.207Z,11.30
2023-05-12T00:55:48.898Z,10.98
2023-05-12T00:58:16.656Z,12.52
2023-05-12T01:00:43.391Z,11.63
2023-05-12T01:03:10.323Z,11.45
2023-05-12T01:05:49.168Z,12.50
2023-05-12T01:08:17.232Z,11.75
2023-05-12T01:10:45.064Z,12.23
2023-05-12T01:13:13.301Z,12.43
2023-05-12T01:18:13.408Z,12.38
2023-05-12T01:20:42.907Z,12.20
2023-05-12T01:23:10.653Z,12.77
2023-05-12T01:25:39.720Z,12.77
2023-05-12T01:28:07.159Z,12.27
2023-05-12T01:30:37.834Z,12.30
2023-05-12T01:33:04.627Z,11.80
2023-05-12T01:35:31.399Z,12.32
2023-05-12T01:38:00.143Z,12.05
2023-05-12T01:40:27.259Z,13.00
2023-05-12T01:42:55.442Z,13.13
2023-05-12T01:45:22.665Z,12.88
2023-05-12T01:47:51.259Z,11.35
2023-05-12T01:50:18.288Z,11.05
2023-05-12T01:52:46.413Z,10.32
2023-05-12T01:55:16.340Z,7.18
2023-05-12T01:58:01.030Z,7.75
2023-05-12T02:00:30.656Z,6.70
2023-05-12T02:02:59.298Z,6.15
2023-05-12T02:05:26.307Z,6.20
2023-05-12T02:07:53.299Z,6.15
2023-05-12T02:10:20.307Z,5.95
2023-05-12T02:12:48.554Z,6.05
2023-05-12T02:15:15.615Z,5.50
2023-05-12T02:17:45.525Z,6.38
2023-05-12T02:20:13.505Z,5.95
2023-05-12T02:22:40.340Z,6.18
2023-05-12T02:25:07.331Z,6.25
2023-05-12T02:27:34.614Z,5.88
2023-05-12T02:30:01.468Z,6.63
2023-05-12T02:32:29.511Z,6.15
2023-05-12T02:34:56.533Z,6.40
2023-05-12T02:37:23.787Z,6.63
2023-05-12T02:39:50.680Z,5.93
2023-05-12T02:42:18.308Z,5.95
2023-05-12T02:44:45.255Z,5.20
2023-05-12T02:47:12.240Z,6.20
2023-05-12T02:49:38.967Z,6.22
2023-05-12T02:52:06.449Z,6.47
2023-05-12T02:54:33.073Z,6.63
2023-05-12T02:57:04.895Z,6.18
2023-05-12T02:59:32.272Z,6.28
2023-05-12T03:01:58.947Z,5.70
2023-05-12T03:04:25.728Z,5.43
2023-05-12T03:06:52.407Z,6.15
2023-05-12T03:09:19.152Z,6.22
2023-05-12T03:11:46.253Z,5.53
2023-05-12T03:14:12.917Z,6.90
2023-05-12T03:16:40.038Z,5.93
2023-05-12T03:19:06.836Z,5.50
2023-05-12T03:21:33.766Z,6.25
2023-05-12T03:24:00.556Z,6.10
2023-05-12T03:26:27.371Z,5.10
2023-05-12T03:28:54.101Z,5.70
2023-05-12T03:31:21.012Z,5.18
2023-05-12T03:33:47.694Z,5.25
2023-05-12T03:36:14.564Z,5.25
2023-05-12T03:38:41.296Z,5.30
2023-05-12T03:41:08.447Z,5.10
2023-05-12T03:43:35.959Z,4.82
2023-05-12T03:46:03.927Z,4.53
2023-05-12T03:48:30.757Z,4.28
2023-05-12T03:50:57.483Z,4.50
2023-05-12T03:53:24.169Z,4.70
2023-05-12T03:55:51.185Z,4.45
2023-05-12T03:58:18.367Z,4.63
2023-05-12T04:00:46.712Z,4.55
2023-05-12T04:03:13.498Z,4.57
2023-05-12T04:05:40.355Z,4.65
2023-05-12T04:08:07.181Z,4.63
2023-05-12T04:10:42.075Z,5.35
2023-05-12T04:13:09.028Z,4.20
2023-05-12T04:15:35.857Z,4.22
2023-05-12T04:18:04.071Z,4.25
2023-05-12T04:20:30.837Z,3.60
2023-05-12T04:22:57.940Z,3.90
2023-05-12T04:25:24.689Z,3.05
2023-05-12T04:27:51.409Z,3.22
2023-05-12T04:30:18.207Z,3.15
2023-05-12T04:32:45.467Z,3.20
2023-05-12T04:35:12.316Z,3.63
2023-05-12T04:37:39.240Z,2.90
2023-05-12T04:40:08.118Z,2.70
2023-05-12T04:45:02.013Z,2.92
2023-05-12T04:47:29.383Z,3.03
2023-05-12T04:49:56.673Z,2.65
2023-05-12T04:52:24.774Z,2.83
2023-05-12T04:54:52.263Z,3.30
2023-05-12T04:57:18.992Z,3.58
2023-05-12T04:59:45.714Z,3.42
2023-05-12T05:02:12.871Z,3.95
2023-05-12T05:04:39.671Z,3.72
2023-05-12T05:07:06.681Z,3.50
2023-05-12T05:09:36.078Z,3.80
2023-05-12T05:12:03.466Z,3.72
2023-05-12T05:14:30.197Z,4.10
2023-05-12T05:16:57.873Z,3.95
2023-05-12T05:19:35.242Z,4.40
2023-05-12T05:24:38.635Z,4.55
2023-05-12T05:27:05.549Z,4.47
2023-05-12T05:29:32.291Z,4.67
2023-05-12T05:31:58.946Z,4.72
2023-05-12T05:34:25.649Z,4.65
2023-05-12T05:36:52.559Z,4.82
2023-05-12T05:39:19.173Z,5.38
2023-05-12T05:41:46.506Z,4.28
2023-05-12T05:44:13.962Z,3.88
2023-05-12T05:46:40.815Z,4.75
2023-05-12T05:49:07.595Z,5.75
2023-05-12T05:51:34.374Z,4.07
2023-05-12T05:54:01.053Z,4.70
2023-05-12T05:56:27.789Z,4.35
2023-05-12T05:58:54.538Z,4.65
2023-05-12T06:01:21.163Z,5.00
2023-05-12T06:03:48.098Z,4.50
2023-05-12T06:06:15.965Z,4.68
2023-05-12T06:08:42.627Z,4.82
2023-05-12T06:11:09.381Z,4.90
2023-05-12T06:13:36.580Z,4.93
2023-05-12T06:16:03.641Z,5.20
2023-05-12T06:18:30.536Z,5.18
2023-05-12T06:20:57.390Z,6.33
2023-05-12T06:23:24.113Z,5.53
2023-05-12T06:25:50.971Z,5.60
2023-05-12T06:28:17.638Z,5.70
2023-05-12T06:30:44.392Z,6.07
2023-05-12T06:33:11.356Z,6.93
2023-05-12T06:35:38.026Z,6.65
2023-05-12T06:38:05.816Z,7.38
2023-05-12T06:40:32.664Z,7.97
2023-05-12T06:42:59.315Z,8.00
2023-05-12T06:45:26.718Z,8.77
2023-05-12T06:47:53.583Z,10.13
2023-05-12T06:50:20.349Z,10.52
2023-05-12T06:52:51.801Z,11.23
2023-05-12T06:55:20.826Z,11.93
2023-05-12T06:57:47.860Z,11.10
2023-05-12T07:00:14.891Z,12.75
2023-05-12T07:02:41.876Z,12.90
2023-05-12T07:05:08.836Z,13.00
2023-05-12T07:07:36.240Z,13.93
2023-05-12T07:10:02.979Z,14.30
2023-05-12T07:12:29.611Z,14.38
2023-05-12T07:14:56.359Z,15.68
2023-05-12T07:17:23.081Z,16.70
2023-05-12T07:19:49.799Z,17.38
2023-05-12T07:22:16.586Z,17.40
2023-05-12T07:24:43.464Z,16.02
2023-05-12T07:27:10.120Z,16.30
2023-05-12T07:29:36.781Z,15.60
2023-05-12T07:32:03.601Z,15.77
2023-05-12T07:34:32.312Z,15.25
2023-05-12T07:36:59.604Z,14.30
2023-05-12T07:39:26.863Z,14.25
2023-05-12T07:41:55.141Z,13.85
2023-05-12T07:44:21.785Z,12.18
2023-05-12T07:46:48.470Z,12.95
2023-05-12T07:49:15.111Z,11.65
2023-05-12T07:51:41.813Z,12.10
2023-05-12T07:54:08.749Z,10.93
2023-05-12T07:56:35.549Z,11.40
2023-05-12T07:59:02.302Z,11.13
2023-05-12T08:01:29.179Z,11.25
2023-05-12T08:03:56.195Z,11.15
2023-05-12T08:06:22.984Z,9.90
2023-05-12T08:08:49.940Z,9.05
2023-05-12T08:11:16.611Z,9.23
2023-05-12T08:13:43.240Z,8.77
2023-05-12T08:16:09.943Z,8.68
2023-05-12T08:18:36.720Z,8.90
2023-05-12T08:21:03.650Z,9.15
2023-05-12T08:23:30.332Z,8.57
2023-05-12T08:25:57.004Z,8.13
2023-05-12T08:28:23.668Z,8.00
2023-05-12T08:30:50.845Z,7.78
2023-05-12T08:33:17.585Z,7.43
2023-05-12T08:35:44.342Z,7.45
2023-05-12T08:38:10.969Z,7.10
2023-05-12T08:41:05.689Z,7.63
2023-05-12T08:43:40.691Z,7.78
2023-05-12T08:46:08.146Z,6.80
2023-05-12T08:48:35.767Z,7.28
2023-05-12T08:51:03.336Z,7.75
2023-05-12T08:53:30.534Z,7.47
2023-05-12T08:57:09.926Z,7.55
2023-05-12T08:58:47.210Z,6.60
2023-05-12T09:01:16.163Z,6.57
2023-05-12T09:03:42.937Z,6.63
2023-05-12T09:06:11.512Z,7.20
2023-05-12T09:08:39.233Z,6.70
2023-05-12T09:11:05.957Z,6.25
2023-05-12T09:14:00.222Z,6.50
2023-05-12T09:16:30.314Z,5.18
2023-05-12T09:18:59.881Z,6.20
2023-05-12T09:21:27.942Z,6.65
2023-05-12T09:23:59.953Z,6.18
2023-05-12T09:26:28.843Z,6.80
2023-05-12T09:29:08.973Z,6.28
2023-05-12T09:31:36.092Z,6.40
2023-05-12T09:34:07.917Z,6.03
2023-05-12T09:36:35.117Z,6.65
2023-05-12T09:39:07.133Z,5.97
2023-05-12T09:41:37.093Z,5.45
2023-05-12T09:44:05.082Z,5.05
2023-05-12T09:48:59.138Z,4.20
2023-05-12T09:51:30.797Z,4.30
2023-05-12T09:53:58.148Z,4.45
2023-05-12T09:56:29.118Z,4.32
2023-05-12T09:58:59.830Z,4.55
2023-05-12T10:01:27.453Z,3.83
2023-05-12T10:03:56.757Z,4.15
2023-05-12T10:06:39.957Z,3.70
2023-05-12T10:09:16.033Z,3.70
2023-05-12T10:11:44.256Z,3.60
2023-05-12T10:14:11.403Z,3.40
2023-05-12T10:16:39.080Z,2.85
2023-05-12T10:19:06.171Z,3.67
2023-05-12T10:21:33.175Z,5.25
2023-05-12T10:24:01.228Z,3.90
2023-05-12T10:26:28.273Z,3.22
2023-05-12T10:28:55.272Z,3.70
2023-05-12T10:31:23.506Z,3.30
2023-05-12T10:34:01.235Z,3.40
2023-05-12T10:38:55.265Z,2.17
2023-05-12T10:41:32.568Z,2.60
2023-05-12T10:43:59.484Z,1.83
2023-05-12T10:46:27.321Z,2.20
2023-05-12T10:49:04.192Z,2.33
2023-05-12T10:51:33.610Z,2.53
2023-05-12T10:54:03.800Z,2.30
2023-05-12T10:56:41.180Z,1.65
2023-05-12T11:01:39.057Z,2.05
2023-05-12T11:04:17.657Z,1.23
2023-05-12T11:06:45.348Z,1.60
2023-05-12T11:09:13.829Z,1.38
2023-05-12T11:11:40.900Z,1.60
2023-05-12T11:14:08.500Z,1.42
2023-05-12T11:16:42.185Z,1.67
2023-05-12T11:19:08.972Z,3.55
2023-05-12T11:21:35.855Z,2.95
2023-05-12T11:24:03.046Z,1.88
2023-05-12T11:26:30.194Z,1.45
2023-05-12T11:28:58.129Z,1.60
2023-05-12T11:31:25.582Z,1.33
2023-05-12T11:34:12.770Z,1.00
2023-05-12T11:36:42.667Z,1.17
2023-05-12T11:39:22.789Z,1.38
2023-05-12T11:41:52.984Z,1.48
2023-05-12T11:44:26.312Z,1.53
2023-05-12T11:46:56.910Z,1.60
2023-05-12T11:49:23.645Z,1.80
2023-05-12T11:51:57.985Z,1.40
2023-05-12T11:54:25.354Z,1.70
2023-05-12T11:56:54.016Z,1.63
2023-05-12T11:59:34.211Z,2.85
2023-05-12T12:02:03.508Z,6.47
2023-05-12T12:04:41.707Z,1.60
2023-05-12T12:07:09.713Z,1.77
2023-05-12T12:09:38.363Z,1.20
2023-05-12T12:12:06.276Z,1.85
2023-05-12T12:14:33.825Z,1.00
2023-05-12T12:17:00.888Z,1.27
2023-05-12T12:19:28.485Z,1.00
2023-05-12T12:21:57.683Z,1.10
2023-05-12T12:24:25.751Z,1.00
2023-05-12T12:26:52.534Z,1.20
2023-05-12T12:29:19.236Z,1.02
2023-05-12T12:31:46.001Z,1.20
2023-05-12T12:34:12.751Z,1.40
2023-05-12T12:36:39.467Z,0.95
2023-05-12T12:39:06.216Z,0.80
2023-05-12T12:41:32.892Z,0.70
2023-05-12T12:43:59.969Z,0.70
2023-05-12T12:46:26.713Z,0.90
2023-05-12T12:48:53.817Z,0.70
2023-05-12T12:51:20.977Z,1.00
2023-05-12T12:53:47.669Z,0.65
2023-05-12T12:56:14.380Z,1.05
2023-05-12T12:58:41.369Z,1.13
2023-05-12T13:01:09.057Z,1.40
2023-05-12T13:03:35.859Z,1.10
2023-05-12T13:06:02.530Z,1.13
2023-05-12T13:08:29.566Z,0.90
2023-05-12T13:10:56.376Z,0.80
2023-05-12T13:13:24.520Z,0.73
2023-05-12T13:15:53.154Z,2.63
2023-05-12T13:18:20.746Z,0.73
2023-05-12T13:20:47.520Z,0.90
2023-05-12T13:23:14.588Z,0.80
2023-05-12T13:25:41.247Z,0.82
2023-05-12T13:28:08.429Z,1.10
2023-05-12T13:30:35.277Z,3.03
2023-05-12T13:33:03.818Z,1.38
2023-05-12T13:35:32.488Z,1.40
2023-05-12T13:37:59.231Z,1.00
2023-05-12T13:40:25.951Z,0.80
2023-05-12T13:42:52.643Z,0.80
2023-05-12T13:45:20.095Z,0.90
2023-05-12T13:47:46.930Z,0.80
2023-05-12T13:50:13.891Z,0.90
2023-05-12T13:52:40.870Z,0.70
2023-05-12T13:55:07.921Z,0.90
2023-05-12T13:57:34.660Z,0.82
2023-05-12T14:00:02.060Z,0.77
2023-05-12T14:02:29.041Z,0.82
2023-05-12T14:04:56.568Z,0.80
2023-05-12T14:07:23.331Z,1.00
2023-05-12T14:09:50.056Z,1.20
2023-05-12T14:12:17.123Z,1.90
2023-05-12T14:14:49.537Z,1.60
2023-05-12T14:17:17.095Z,1.92
2023-05-12T14:19:43.706Z,1.95
2023-05-12T14:22:22.461Z,1.88
2023-05-12T14:24:51.921Z,2.65
2023-05-12T14:27:18.649Z,2.47
2023-05-12T14:29:45.528Z,1.90
2023-05-12T14:32:13.309Z,2.73
2023-05-12T14:37:06.584Z,2.37
2023-05-12T14:39:33.308Z,2.20
2023-05-12T14:41:59.980Z,1.90
2023-05-12T14:44:26.917Z,2.08
2023-05-12T14:46:53.579Z,1.92
2023-05-12T14:49:21.683Z,2.28
2023-05-12T14:51:49.585Z,4.72
2023-05-12T14:54:25.385Z,2.58
2023-05-12T14:56:52.792Z,4.35
2023-05-12T14:59:19.708Z,2.00
2023-05-12T15:01:46.600Z,2.17
2023-05-12T15:04:13.369Z,1.95
2023-05-12T15:06:40.186Z,1.88
2023-05-12T15:09:07.330Z,2.27
2023-05-12T15:11:34.192Z,1.90
2023-05-12T15:14:00.865Z,2.10
2023-05-12T15:16:28.145Z,2.10
2023-05-12T15:18:55.010Z,2.22
2023-05-12T15:21:21.968Z,2.42
2023-05-12T15:23:49.197Z,2.03
2023-05-12T15:26:31.923Z,2.15
2023-05-12T15:29:00.146Z,2.58
2023-05-12T15:31:29.325Z,2.63
2023-05-12T15:33:57.061Z,2.33
2023-05-12T15:36:23.868Z,2.40
2023-05-12T15:38:50.607Z,2.00
2023-05-12T15:41:17.474Z,1.95
2023-05-12T15:43:44.275Z,1.87
2023-05-12T15:46:11.629Z,2.07
2023-05-12T15:48:39.399Z,1.77
2023-05-12T15:51:06.873Z,1.80
2023-05-12T15:53:34.013Z,1.95
2023-05-12T15:56:04.923Z,2.40
2023-05-12T15:58:32.016Z,7.60
2023-05-12T16:00:59.505Z,3.25
2023-05-12T16:03:26.601Z,4.43
2023-05-12T16:05:53.495Z,2.30
2023-05-12T16:08:20.458Z,2.40
2023-05-12T16:10:47.248Z,2.33
2023-05-12T16:13:14.565Z,2.03
2023-05-12T16:15:41.370Z,2.50
2023-05-12T16:18:10.939Z,2.03
2023-05-12T16:20:39.011Z,2.42
2023-05-12T16:23:05.746Z,2.20
2023-05-12T16:25:32.402Z,2.20
2023-05-12T16:27:59.239Z,1.83
2023-05-12T16:30:26.426Z,2.05
2023-05-12T16:32:53.316Z,1.88
2023-05-12T16:35:20.826Z,2.35
2023-05-12T16:37:47.996Z,2.20
2023-05-12T16:40:15.403Z,2.05
2023-05-12T16:42:42.771Z,2.30
2023-05-12T16:45:10.984Z,1.83
2023-05-12T16:47:37.776Z,2.00
2023-05-12T16:50:05.092Z,2.47
2023-05-12T16:52:31.765Z,1.90
2023-05-12T16:54:58.500Z,1.90
2023-05-12T16:57:25.306Z,1.90
2023-05-12T16:59:51.992Z,2.33
2023-05-12T17:02:18.799Z,1.75
2023-05-12T17:04:46.658Z,1.90
2023-05-12T17:07:13.579Z,1.60
2023-05-12T17:09:40.311Z,1.70
2023-05-12T17:12:07.994Z,1.73
2023-05-12T17:17:02.382Z,1.80
2023-05-12T17:19:29.626Z,2.00
2023-05-12T17:21:56.582Z,6.80
2023-05-12T17:24:23.309Z,5.35
2023-05-12T17:26:50.431Z,1.75
2023-05-12T17:29:17.733Z,2.90
2023-05-12T17:31:44.629Z,1.80
2023-05-12T17:34:11.438Z,1.60
2023-05-12T17:36:38.198Z,1.70
2023-05-12T17:39:05.119Z,1.77
2023-05-12T17:41:31.869Z,1.40
2023-05-12T17:43:58.563Z,1.60
2023-05-12T17:46:25.248Z,1.65
2023-05-12T17:48:51.979Z,1.70
2023-05-12T17:51:18.696Z,1.80
2023-05-12T17:53:46.332Z,1.48
2023-05-12T17:56:12.981Z,1.70
2023-05-12T17:58:39.715Z,1.67
2023-05-12T18:01:06.482Z,1.77
2023-05-12T18:03:33.363Z,2.20
2023-05-12T18:06:00.065Z,1.80
2023-05-12T18:08:27.254Z,1.80
2023-05-12T18:10:54.192Z,1.80
2023-05-12T18:13:20.906Z,1.83
2023-05-12T18:15:48.827Z,1.77
2023-05-12T18:18:15.622Z,1.98
2023-05-12T18:20:42.503Z,2.03
2023-05-12T18:23:09.248Z,2.15
2023-05-12T18:25:36.069Z,2.03
2023-05-12T18:28:02.886Z,2.10
2023-05-12T18:30:29.625Z,1.90
2023-05-12T18:32:56.565Z,2.13
2023-05-12T18:35:23.648Z,5.00
2023-05-12T18:37:50.608Z,1.77
2023-05-12T18:40:17.309Z,2.50
2023-05-12T18:42:44.065Z,2.03
2023-05-12T18:45:11.319Z,2.00
2023-05-12T18:47:38.776Z,2.47
2023-05-12T18:50:05.840Z,2.10
2023-05-12T18:52:32.672Z,2.15
2023-05-12T18:54:59.696Z,1.92
2023-05-12T18:57:26.419Z,1.80
2023-05-12T18:59:53.113Z,1.80
2023-05-12T19:02:19.764Z,1.60
2023-05-12T19:04:46.529Z,1.80
2023-05-12T19:07:15.443Z,1.75
2023-05-12T19:09:43.205Z,1.90
2023-05-12T19:12:13.226Z,2.00
2023-05-12T19:14:40.434Z,1.90
2023-05-12T19:17:07.734Z,1.90
2023-05-12T19:19:35.013Z,2.28
2023-05-12T19:22:02.197Z,2.40
2023-05-12T19:24:29.741Z,10.82
2023-05-12T19:26:57.448Z,3.28
2023-05-12T19:29:24.176Z,2.17
2023-05-12T19:31:52.948Z,2.20
2023-05-12T19:34:20.058Z,2.22
2023-05-12T19:36:46.956Z,2.30
2023-05-12T19:39:13.751Z,2.40
2023-05-12T19:41:41.061Z,2.28
2023-05-12T19:44:07.823Z,2.40
2023-05-12T19:46:34.521Z,2.58
2023-05-12T19:49:01.193Z,3.13
2023-05-12T19:51:28.349Z,3.15
2023-05-12T19:53:55.114Z,2.72
2023-05-12T19:56:21.782Z,3.65
2023-05-12T19:58:48.604Z,3.17
2023-05-12T20:01:15.428Z,3.40
2023-05-12T20:03:42.156Z,3.75
2023-05-12T20:06:08.915Z,3.40
2023-05-12T20:08:35.827Z,3.22
2023-05-12T20:11:02.479Z,2.85
2023-05-12T20:13:29.134Z,3.50
2023-05-12T20:15:56.116Z,2.83
2023-05-12T20:18:23.811Z,3.37
2023-05-12T20:23:17.650Z,3.08
2023-05-12T20:25:44.362Z,2.97
2023-05-12T20:28:11.742Z,3.40
2023-05-12T20:30:38.702Z,3.15
2023-05-12T20:33:05.586Z,2.92
2023-05-12T20:35:32.414Z,3.38
2023-05-12T20:37:59.389Z,3.35
2023-05-12T20:40:26.164Z,3.40
2023-05-12T20:42:52.893Z,3.47
2023-05-12T20:45:20.034Z,3.22
2023-05-12T20:47:47.154Z,3.38
2023-05-12T20:50:13.960Z,3.90
2023-05-12T20:52:42.582Z,3.90
2023-05-12T20:55:09.893Z,3.65
2023-05-12T20:57:37.827Z,3.58
2023-05-12T21:00:05.100Z,3.50
2023-05-12T21:02:31.943Z,3.33
2023-05-12T21:04:58.949Z,3.78
2023-05-12T21:07:25.665Z,3.80
2023-05-12T21:09:52.411Z,3.65
2023-05-12T21:12:19.175Z,3.63
2023-05-12T21:14:45.872Z,3.97
2023-05-12T21:17:12.965Z,3.83
2023-05-12T21:19:41.459Z,3.90
2023-05-12T21:22:10.457Z,3.63
2023-05-12T21:24:39.350Z,3.70
2023-05-12T21:27:08.067Z,4.18
2023-05-12T21:29:35.364Z,4.25
2023-05-12T21:32:02.201Z,4.53
2023-05-12T21:34:28.921Z,4.38
2023-05-12T21:36:56.487Z,4.80
2023-05-12T21:39:23.141Z,4.57
2023-05-12T21:41:49.843Z,5.05
2023-05-12T21:44:16.494Z,4.50
2023-05-12T21:46:43.406Z,4.68
2023-05-12T21:49:10.325Z,4.60
2023-05-12T21:51:37.128Z,4.03
2023-05-12T21:54:04.110Z,4.60
2023-05-12T21:56:30.767Z,4.40
2023-05-12T21:58:57.499Z,4.90
2023-05-12T22:01:24.291Z,4.50
2023-05-12T22:03:51.341Z,4.60
2023-05-12T22:06:18.241Z,4.57
2023-05-12T22:08:45.002Z,4.70
2023-05-12T22:11:11.757Z,5.07
2023-05-12T22:13:38.449Z,5.03
2023-05-12T22:16:05.711Z,4.93
2023-05-12T22:18:33.395Z,5.60
2023-05-12T22:21:00.592Z,5.30
2023-05-12T22:23:27.372Z,5.32
2023-05-12T22:25:54.049Z,5.43
2023-05-12T22:28:20.869Z,5.85
2023-05-12T22:30:47.487Z,5.55
2023-05-12T22:33:14.176Z,13.50
2023-05-12T22:35:40.810Z,18.60
2023-05-12T22:38:07.508Z,16.17
2023-05-12T22:40:34.285Z,11.85
2023-05-12T22:43:00.950Z,7.10
2023-05-12T22:45:27.631Z,6.55
2023-05-12T22:47:54.818Z,6.82
2023-05-12T22:50:21.772Z,6.55
2023-05-12T22:52:48.638Z,7.30
2023-05-12T22:55:15.270Z,6.63
2023-05-12T22:57:43.749Z,6.63
2023-05-12T23:00:11.588Z,7.10
2023-05-12T23:02:38.333Z,7.00
2023-05-12T23:05:05.556Z,7.22
2023-05-12T23:07:32.219Z,6.95
2023-05-12T23:09:58.937Z,7.78
2023-05-12T23:12:25.955Z,7.82
2023-05-12T23:14:52.900Z,7.97
2023-05-12T23:17:20.823Z,8.25
2023-05-12T23:19:47.549Z,8.93
2023-05-12T23:22:14.174Z,9.13
2023-05-12T23:24:41.080Z,8.63
2023-05-12T23:27:07.933Z,8.75
2023-05-12T23:29:34.698Z,9.67
2023-05-12T23:32:01.743Z,9.63
2023-05-12T23:34:28.799Z,9.20
2023-05-12T23:36:55.597Z,8.90
2023-05-12T23:39:22.260Z,9.10
2023-05-12T23:41:49.628Z,8.75
2023-05-12T23:44:16.350Z,8.57
2023-05-12T23:46:43.287Z,8.55
2023-05-12T23:49:10.279Z,8.98
2023-05-12T23:51:36.971Z,8.27
2023-05-12T23:54:03.702Z,8.60
2023-05-12T23:56:30.383Z,9.00
2023-05-12T23:58:57.082Z,8.70
